Time;durP1;ratioP1;P1;durP2;ratioP2;P2;SDS_P1;SDS_P2;PMS_P1;PMS_P2;Temp;Humidity;BMP_temperature;BMP_pressure;BME280_temperature;BME280_humidity;BME280_pressure;Samples;Min_cycle;Max_cycle;Signal;HPM_P1;HPM_P2
2022/08/09 00:00:06;;;;;;;;;;;24.60;51.30;;;;;;5082364;28;20289;-89
2022/08/09 00:02:32;;;;;;;;;;;24.50;51.30;;;;;;5081120;28;19911;-89
2022/08/09 00:04:58;;;;;;;;;;;24.50;51.30;;;;;;5081538;28;20290;-89
2022/08/09 00:07:23;;;;;;;;;;;24.50;51.30;;;;;;5080955;28;19965;-89
2022/08/09 00:09:49;;;;;;;;;;;24.50;51.40;;;;;;5082394;28;20169;-89
2022/08/09 00:12:15;;;;;;;;;;;24.50;51.40;;;;;;5081102;28;19969;-89
2022/08/09 00:14:41;;;;;;;;;;;24.50;51.40;;;;;;5081138;28;19915;-89
2022/08/09 00:17:06;;;;;;;;;;;24.50;51.40;;;;;;5081688;28;19986;-89
2022/08/09 00:19:32;;;;;;;;;;;24.50;51.50;;;;;;5081184;28;20270;-89
2022/08/09 00:21:58;;;;;;;;;;;24.50;51.60;;;;;;5082057;28;19986;-89
2022/08/09 00:24:24;;;;;;;;;;;24.40;51.70;;;;;;5082223;28;19905;-90
2022/08/09 00:26:50;;;;;;;;;;;24.40;51.70;;;;;;5081130;28;19904;-89
2022/08/09 00:29:16;;;;;;;;;;;24.40;51.90;;;;;;5082123;28;19904;-90
2022/08/09 00:31:41;;;;;;;;;;;24.30;51.90;;;;;;5081938;28;19940;-89
2022/08/09 00:34:07;;;;;;;;;;;24.30;52.00;;;;;;5081098;28;20129;-90
2022/08/09 00:36:33;;;;;;;;;;;24.30;52.10;;;;;;5080673;28;19904;-90
2022/08/09 00:38:58;;;;;;;;;;;24.30;52.10;;;;;;5081477;28;19911;-90
2022/08/09 00:41:24;;;;;;;;;;;24.30;52.10;;;;;;5099043;28;19908;-90
2022/08/09 00:43:50;;;;;;;;;;;24.30;52.30;;;;;;5081332;28;19915;-90
2022/08/09 00:46:16;;;;;;;;;;;24.30;52.10;;;;;;5080664;28;19904;-90
2022/08/09 00:48:42;;;;;;;;;;;24.30;52.20;;;;;;5081293;28;19904;-89
2022/08/09 00:51:08;;;;;;;;;;;24.20;52.20;;;;;;5081484;28;20034;-90
2022/08/09 00:53:34;;;;;;;;;;;24.20;52.20;;;;;;5081139;28;19995;-89
2022/08/09 00:56:00;;;;;;;;;;;24.30;52.10;;;;;;5081234;28;19911;-90
2022/08/09 00:58:26;;;;;;;;;;;24.20;52.20;;;;;;5081363;28;19904;-89
2022/08/09 01:00:52;;;;;;;;;;;24.20;52.40;;;;;;5080578;28;19908;-89
2022/08/09 01:03:30;;;;;;;;;;;24.20;52.50;;;;;;5098031;28;19904;-89
2022/08/09 01:06:00;;;;;;;;;;;24.10;52.40;;;;;;5081151;28;20236;-89
2022/08/09 01:08:26;;;;;;;;;;;24.10;52.30;;;;;;5079386;28;20174;-89
2022/08/09 01:11:02;;;;;;;;;;;24.10;52.40;;;;;;5077671;28;20363;-89
2022/08/09 01:13:45;;;;;;;;;;;24.10;52.50;;;;;;5079937;28;19908;-89
2022/08/09 01:16:11;;;;;;;;;;;24.10;52.70;;;;;;5080145;28;20156;-89
2022/08/09 01:18:38;;;;;;;;;;;24.10;52.70;;;;;;5080244;28;19915;-89
2022/08/09 01:21:39;;;;;;;;;;;24.00;52.70;;;;;;5079990;28;19915;-89
2022/08/09 01:24:17;;;;;;;;;;;24.00;52.70;;;;;;4999684;28;20283;-89
2022/08/09 01:26:45;;;;;;;;;;;24.00;52.70;;;;;;5070155;28;19988;-89
2022/08/09 01:29:11;;;;;;;;;;;24.00;52.70;;;;;;5081808;28;20020;-89
2022/08/09 01:31:39;;;;;;;;;;;24.00;52.80;;;;;;5081230;28;20014;-90
2022/08/09 01:34:05;;;;;;;;;;;24.00;52.80;;;;;;5081233;28;19911;-90
2022/08/09 01:36:32;;;;;;;;;;;24.00;52.90;;;;;;5080942;28;19908;-89
2022/08/09 01:38:58;;;;;;;;;;;24.00;53.00;;;;;;5080286;28;19915;-90
2022/08/09 01:41:28;;;;;;;;;;;24.00;53.00;;;;;;5080342;28;19982;-90
2022/08/09 01:43:55;;;;;;;;;;;23.90;53.10;;;;;;5080843;28;19919;-90
2022/08/09 01:46:23;;;;;;;;;;;23.90;53.10;;;;;;5080270;28;19912;-90
2022/08/09 01:48:49;;;;;;;;;;;23.90;53.10;;;;;;5079953;28;19903;-89
2022/08/09 01:51:16;;;;;;;;;;;23.90;53.10;;;;;;5078625;28;20008;-90
2022/08/09 01:53:42;;;;;;;;;;;23.90;53.20;;;;;;5080230;28;19904;-90
2022/08/09 01:56:10;;;;;;;;;;;23.80;53.20;;;;;;5079152;28;19919;-89
2022/08/09 01:58:36;;;;;;;;;;;23.80;53.20;;;;;;5078836;28;19907;-90
2022/08/09 02:01:03;;;;;;;;;;;23.80;53.30;;;;;;5078789;28;19915;-89
2022/08/09 02:03:31;;;;;;;;;;;23.80;53.30;;;;;;5079881;28;19904;-88
2022/08/09 02:05:57;;;;;;;;;;;23.80;53.30;;;;;;5097059;28;20186;-89
2022/08/09 02:08:23;;;;;;;;;;;23.80;53.40;;;;;;5079178;28;19904;-88
2022/08/09 02:10:51;;;;;;;;;;;23.80;53.50;;;;;;5097308;28;19934;-89
2022/08/09 02:13:17;;;;;;;;;;;23.80;53.50;;;;;;5079885;28;19908;-88
2022/08/09 02:15:44;;;;;;;;;;;23.80;53.60;;;;;;5096621;28;19914;-89
2022/08/09 02:18:10;;;;;;;;;;;23.70;53.60;;;;;;5079787;28;19912;-89
2022/08/09 02:20:42;;;;;;;;;;;23.70;53.60;;;;;;5080446;28;19918;-89
2022/08/09 02:23:07;;;;;;;;;;;23.70;53.70;;;;;;5079318;28;20010;-89
2022/08/09 02:25:35;;;;;;;;;;;23.70;53.70;;;;;;5097529;28;19939;-89
2022/08/09 02:28:06;;;;;;;;;;;23.70;53.70;;;;;;5079816;28;19904;-88
2022/08/09 02:30:35;;;;;;;;;;;23.70;53.80;;;;;;5079439;28;20015;-89
2022/08/09 02:33:01;;;;;;;;;;;23.60;53.80;;;;;;5079260;28;19908;-89
2022/08/09 02:35:28;;;;;;;;;;;23.60;54.00;;;;;;5095777;28;19947;-89
2022/08/09 02:37:56;;;;;;;;;;;23.60;53.90;;;;;;5079016;28;19911;-89
2022/08/09 02:40:23;;;;;;;;;;;23.60;54.00;;;;;;5079332;28;20354;-89
2022/08/09 02:42:51;;;;;;;;;;;23.60;54.00;;;;;;5079598;28;20258;-89
2022/08/09 02:45:23;;;;;;;;;;;23.50;54.10;;;;;;5078568;28;20213;-89
2022/08/09 02:47:50;;;;;;;;;;;23.50;54.30;;;;;;5079363;28;19943;-90
2022/08/09 02:50:21;;;;;;;;;;;23.40;54.60;;;;;;5079011;28;19904;-90
2022/08/09 02:52:50;;;;;;;;;;;23.30;55.00;;;;;;5095141;28;19904;-90
2022/08/09 02:55:16;;;;;;;;;;;23.30;55.00;;;;;;5096378;28;19915;-90
2022/08/09 02:57:42;;;;;;;;;;;23.30;54.90;;;;;;5079562;28;19904;-89
2022/08/09 03:00:09;;;;;;;;;;;23.30;54.80;;;;;;5096567;28;19991;-90
2022/08/09 03:02:36;;;;;;;;;;;23.30;54.70;;;;;;5079067;28;19903;-90
2022/08/09 03:05:02;;;;;;;;;;;23.40;54.70;;;;;;5077992;28;20217;-90
2022/08/09 03:07:29;;;;;;;;;;;23.30;54.60;;;;;;5077745;28;19908;-89
2022/08/09 03:09:56;;;;;;;;;;;23.30;54.60;;;;;;5078083;28;19916;-89
2022/08/09 03:12:22;;;;;;;;;;;23.30;54.60;;;;;;5078985;28;20202;-89
2022/08/09 03:14:48;;;;;;;;;;;23.30;54.70;;;;;;5077812;28;20282;-89
2022/08/09 03:17:14;;;;;;;;;;;23.30;54.70;;;;;;5077783;28;19911;-89
2022/08/09 03:19:41;;;;;;;;;;;23.30;54.70;;;;;;5077875;28;19908;-89
2022/08/09 03:22:08;;;;;;;;;;;23.30;54.80;;;;;;5078909;28;19995;-89
2022/08/09 03:24:33;;;;;;;;;;;23.30;54.80;;;;;;5078552;28;19995;-88
2022/08/09 03:26:59;;;;;;;;;;;23.30;54.90;;;;;;5078553;28;20010;-89
2022/08/09 03:29:25;;;;;;;;;;;23.30;54.90;;;;;;5078591;28;19907;-88
2022/08/09 03:31:51;;;;;;;;;;;23.20;55.00;;;;;;5095929;28;19916;-89
2022/08/09 03:34:17;;;;;;;;;;;23.20;55.30;;;;;;5077393;28;20333;-89
2022/08/09 03:36:42;;;;;;;;;;;23.20;55.10;;;;;;5077879;28;19911;-89
2022/08/09 03:39:08;;;;;;;;;;;23.20;55.30;;;;;;5077499;28;19904;-89
2022/08/09 03:41:34;;;;;;;;;;;23.20;55.40;;;;;;5078001;28;19938;-89
2022/08/09 03:43:59;;;;;;;;;;;23.20;55.50;;;;;;5077738;28;20007;-90
2022/08/09 03:46:25;;;;;;;;;;;23.20;55.60;;;;;;5095126;28;19916;-90
2022/08/09 03:48:52;;;;;;;;;;;23.10;55.70;;;;;;5077498;28;19907;-90
2022/08/09 03:51:21;;;;;;;;;;;23.10;55.80;;;;;;5076856;28;19962;-89
2022/08/09 03:53:47;;;;;;;;;;;23.10;55.70;;;;;;5077229;28;20293;-89
2022/08/09 03:56:13;;;;;;;;;;;23.20;55.80;;;;;;5077127;28;19904;-90
2022/08/09 03:58:39;;;;;;;;;;;23.20;55.80;;;;;;5076745;28;20235;-90
2022/08/09 04:01:05;;;;;;;;;;;23.20;55.80;;;;;;5076120;28;19995;-90
2022/08/09 04:03:31;;;;;;;;;;;23.20;55.90;;;;;;5076438;28;20171;-90
2022/08/09 04:05:57;;;;;;;;;;;23.20;55.90;;;;;;5077584;28;19910;-89
2022/08/09 04:08:23;;;;;;;;;;;23.20;55.90;;;;;;5076708;28;20003;-90
2022/08/09 04:10:49;;;;;;;;;;;23.10;55.90;;;;;;5077711;28;19947;-90
2022/08/09 04:13:14;;;;;;;;;;;23.20;56.30;;;;;;5076633;28;19904;-89
2022/08/09 04:15:43;;;;;;;;;;;23.20;56.00;;;;;;5077559;28;19999;-89
2022/08/09 04:18:09;;;;;;;;;;;23.10;55.90;;;;;;5093897;28;19904;-89
2022/08/09 04:20:35;;;;;;;;;;;23.20;55.90;;;;;;5076054;28;19908;-90
2022/08/09 04:23:01;;;;;;;;;;;23.10;56.00;;;;;;5076485;28;19904;-89
2022/08/09 04:25:26;;;;;;;;;;;23.10;55.90;;;;;;5076649;28;19957;-89
2022/08/09 04:27:52;;;;;;;;;;;23.20;55.90;;;;;;5075514;28;19904;-89
2022/08/09 04:30:18;;;;;;;;;;;23.20;55.90;;;;;;5093455;28;20289;-89
2022/08/09 04:32:44;;;;;;;;;;;23.20;56.00;;;;;;5075678;28;19904;-89
2022/08/09 04:35:11;;;;;;;;;;;23.10;55.90;;;;;;5075523;28;20289;-89
2022/08/09 04:37:37;;;;;;;;;;;23.20;55.90;;;;;;5075792;28;19919;-89
2022/08/09 04:40:03;;;;;;;;;;;23.20;55.80;;;;;;5078382;28;20280;-89
2022/08/09 04:42:30;;;;;;;;;;;23.20;55.80;;;;;;5079541;28;19930;-89
2022/08/09 04:44:56;;;;;;;;;;;23.20;55.90;;;;;;5078511;28;19964;-89
2022/08/09 04:47:22;;;;;;;;;;;23.20;56.20;;;;;;5078585;28;19915;-89
2022/08/09 04:49:48;;;;;;;;;;;23.20;55.80;;;;;;5097541;28;19904;-89
2022/08/09 04:52:14;;;;;;;;;;;23.20;55.70;;;;;;5079408;28;19904;-89
2022/08/09 04:54:40;;;;;;;;;;;23.20;55.70;;;;;;5097501;28;19931;-89
2022/08/09 04:57:05;;;;;;;;;;;23.30;55.80;;;;;;5079175;28;19908;-88
2022/08/09 04:59:31;;;;;;;;;;;23.30;55.70;;;;;;5078582;28;19904;-89
2022/08/09 05:01:57;;;;;;;;;;;23.30;55.60;;;;;;5078016;28;19904;-89
2022/08/09 05:04:23;;;;;;;;;;;23.30;55.70;;;;;;5095631;28;19904;-88
2022/08/09 05:06:48;;;;;;;;;;;23.30;55.70;;;;;;5079092;28;19904;-89
2022/08/09 05:09:14;;;;;;;;;;;23.40;55.70;;;;;;5096275;28;19915;-89
2022/08/09 05:11:39;;;;;;;;;;;23.40;55.60;;;;;;5078468;28;20000;-88
2022/08/09 05:14:05;;;;;;;;;;;23.40;55.50;;;;;;5078090;28;20361;-89
2022/08/09 05:16:31;;;;;;;;;;;23.50;55.30;;;;;;5078708;28;20260;-89
2022/08/09 05:18:56;;;;;;;;;;;23.50;55.30;;;;;;5076906;28;19908;-89
2022/08/09 05:21:26;;;;;;;;;;;23.60;55.20;;;;;;5077939;28;19938;-89
2022/08/09 05:23:52;;;;;;;;;;;23.60;55.00;;;;;;5076603;28;19935;-89
2022/08/09 05:26:18;;;;;;;;;;;23.70;55.20;;;;;;5076837;28;19911;-89
2022/08/09 05:28:43;;;;;;;;;;;23.80;54.50;;;;;;5094090;28;19904;-88
2022/08/09 05:31:09;;;;;;;;;;;23.90;54.40;;;;;;5076463;28;19910;-89
2022/08/09 05:33:35;;;;;;;;;;;23.90;54.40;;;;;;5076485;28;20323;-89
2022/08/09 05:36:02;;;;;;;;;;;24.00;54.30;;;;;;5076182;28;20139;-89
2022/08/09 05:38:28;;;;;;;;;;;24.00;54.00;;;;;;5075874;28;19954;-89
2022/08/09 05:40:54;;;;;;;;;;;24.10;53.90;;;;;;5077089;28;19959;-89
2022/08/09 05:43:20;;;;;;;;;;;24.10;53.60;;;;;;5076164;28;19908;-89
2022/08/09 05:45:45;;;;;;;;;;;24.30;53.70;;;;;;5076490;28;20171;-89
2022/08/09 05:48:11;;;;;;;;;;;24.30;53.60;;;;;;5076826;28;20060;-89
2022/08/09 05:50:37;;;;;;;;;;;24.40;53.80;;;;;;5075229;28;20308;-89
2022/08/09 05:53:03;;;;;;;;;;;24.50;53.00;;;;;;5075006;28;19904;-89
2022/08/09 05:55:29;;;;;;;;;;;24.60;52.70;;;;;;5075679;28;19911;-89
2022/08/09 05:57:54;;;;;;;;;;;24.80;52.80;;;;;;5074433;28;20140;-90
2022/08/09 06:00:24;;;;;;;;;;;24.90;52.50;;;;;;5075588;28;19908;-89
2022/08/09 06:02:50;;;;;;;;;;;25.00;52.30;;;;;;5076465;28;19908;-89
2022/08/09 06:05:16;;;;;;;;;;;25.10;52.00;;;;;;5075894;28;20159;-89
2022/08/09 06:07:41;;;;;;;;;;;25.20;51.60;;;;;;5075009;28;19966;-89
2022/08/09 06:10:07;;;;;;;;;;;25.40;51.50;;;;;;5075583;28;19904;-89
2022/08/09 06:12:33;;;;;;;;;;;25.40;51.40;;;;;;5074723;28;19908;-90
2022/08/09 06:14:59;;;;;;;;;;;25.60;51.70;;;;;;5074692;28;20209;-90
2022/08/09 06:17:24;;;;;;;;;;;25.70;51.20;;;;;;5074405;28;19904;-90
2022/08/09 06:19:50;;;;;;;;;;;25.80;51.30;;;;;;5074332;28;19911;-89
2022/08/09 06:22:16;;;;;;;;;;;25.90;51.10;;;;;;5074963;28;19904;-89
2022/08/09 06:24:41;;;;;;;;;;;25.90;50.90;;;;;;5074850;28;19915;-89
2022/08/09 06:27:07;;;;;;;;;;;26.00;50.80;;;;;;5092698;28;20214;-90
2022/08/09 06:29:32;;;;;;;;;;;26.20;50.80;;;;;;5075113;28;19908;-89
2022/08/09 06:31:58;;;;;;;;;;;26.30;50.60;;;;;;5073978;28;19997;-89
2022/08/09 06:34:24;;;;;;;;;;;26.50;50.40;;;;;;5074079;28;20141;-89
2022/08/09 06:36:50;;;;;;;;;;;26.60;51.10;;;;;;5092644;28;19904;-89
2022/08/09 06:39:16;;;;;;;;;;;26.60;51.50;;;;;;5076048;28;19933;-89
2022/08/09 06:41:42;;;;;;;;;;;26.80;52.20;;;;;;5072841;28;20270;-90
2022/08/09 06:44:08;;;;;;;;;;;26.90;50.90;;;;;;5074563;28;20284;-89
2022/08/09 06:46:34;;;;;;;;;;;27.00;50.20;;;;;;5091881;28;19908;-89
2022/08/09 06:48:59;;;;;;;;;;;27.30;50.10;;;;;;5075141;28;20011;-89
2022/08/09 06:51:25;;;;;;;;;;;27.80;49.60;;;;;;5092529;28;19961;-89
2022/08/09 06:53:51;;;;;;;;;;;28.20;49.30;;;;;;5074290;28;19954;-89
2022/08/09 06:56:16;;;;;;;;;;;28.50;48.80;;;;;;5091428;28;19910;-89
2022/08/09 06:58:42;;;;;;;;;;;29.10;48.50;;;;;;5074070;28;19943;-90
2022/08/09 07:01:08;;;;;;;;;;;29.50;47.80;;;;;;5074076;28;20023;-89
2022/08/09 07:03:33;;;;;;;;;;;29.90;47.40;;;;;;5073581;28;19915;-89
2022/08/09 07:06:00;;;;;;;;;;;30.10;47.00;;;;;;5075119;28;19919;-89
2022/08/09 07:08:25;;;;;;;;;;;30.20;46.80;;;;;;5073862;28;19912;-89
2022/08/09 07:10:53;;;;;;;;;;;30.50;46.50;;;;;;5073229;28;19915;-89
2022/08/09 07:13:19;;;;;;;;;;;30.80;46.20;;;;;;5073300;28;19910;-88
2022/08/09 07:15:45;;;;;;;;;;;31.20;46.10;;;;;;5072949;28;19904;-89
2022/08/09 07:18:10;;;;;;;;;;;31.50;45.50;;;;;;5072529;28;19961;-89
2022/08/09 07:20:36;;;;;;;;;;;31.60;45.40;;;;;;5090268;28;19961;-89
2022/08/09 07:23:02;;;;;;;;;;;31.80;45.30;;;;;;5072495;28;19904;-89
2022/08/09 07:25:27;;;;;;;;;;;32.00;45.00;;;;;;5073484;28;19966;-89
2022/08/09 07:27:53;;;;;;;;;;;32.20;44.70;;;;;;5091941;28;19998;-89
2022/08/09 07:30:19;;;;;;;;;;;32.50;44.40;;;;;;5073042;28;19915;-89
2022/08/09 07:32:45;;;;;;;;;;;32.80;43.90;;;;;;5072894;28;20139;-89
2022/08/09 07:35:11;;;;;;;;;;;33.20;43.60;;;;;;5073217;28;20136;-89
2022/08/09 07:37:38;;;;;;;;;;;33.40;43.60;;;;;;5073978;28;20330;-90
2022/08/09 07:40:04;;;;;;;;;;;33.50;43.70;;;;;;5090290;28;19907;-88
2022/08/09 07:42:30;;;;;;;;;;;33.70;43.50;;;;;;5072961;28;19969;-89
2022/08/09 07:44:56;;;;;;;;;;;33.80;43.30;;;;;;5072612;28;20308;-90
2022/08/09 07:47:21;;;;;;;;;;;34.00;42.90;;;;;;5073026;28;19908;-89
2022/08/09 07:49:47;;;;;;;;;;;34.20;42.80;;;;;;5073705;28;19926;-89
2022/08/09 07:52:13;;;;;;;;;;;34.30;42.60;;;;;;5089002;28;19915;-90
2022/08/09 07:54:39;;;;;;;;;;;34.50;42.40;;;;;;5071406;28;19904;-90
2022/08/09 07:57:05;;;;;;;;;;;34.50;42.20;;;;;;5073030;28;19931;-89
2022/08/09 07:59:31;;;;;;;;;;;34.80;42.10;;;;;;5072673;28;20005;-89
2022/08/09 08:01:56;;;;;;;;;;;34.90;42.00;;;;;;5072673;28;19908;-89
2022/08/09 08:04:22;;;;;;;;;;;35.00;41.80;;;;;;5090356;28;20123;-90
2022/08/09 08:06:47;;;;;;;;;;;35.20;41.70;;;;;;5090646;28;20151;-90
2022/08/09 08:09:13;;;;;;;;;;;35.30;41.60;;;;;;5073616;28;19941;-90
2022/08/09 08:11:39;;;;;;;;;;;35.50;41.60;;;;;;5071542;28;19915;-90
2022/08/09 08:14:05;;;;;;;;;;;35.50;41.50;;;;;;5074957;28;19930;-90
2022/08/09 08:16:30;;;;;;;;;;;35.60;41.30;;;;;;5077538;28;19912;-89
2022/08/09 08:18:56;;;;;;;;;;;35.90;41.00;;;;;;5076916;28;19919;-89
2022/08/09 08:21:22;;;;;;;;;;;36.00;40.90;;;;;;5076234;28;20154;-90
2022/08/09 08:23:48;;;;;;;;;;;36.10;40.90;;;;;;5077061;28;19904;-90
2022/08/09 08:26:14;;;;;;;;;;;36.30;40.60;;;;;;5076029;28;19904;-90
2022/08/09 08:28:40;;;;;;;;;;;36.40;40.50;;;;;;5094132;28;19908;-89
2022/08/09 08:31:06;;;;;;;;;;;36.30;40.80;;;;;;5093101;28;20065;-89
2022/08/09 08:33:31;;;;;;;;;;;36.30;40.80;;;;;;5074445;28;20157;-90
2022/08/09 08:35:57;;;;;;;;;;;36.30;40.70;;;;;;5074656;28;19912;-89
2022/08/09 08:38:23;;;;;;;;;;;36.40;40.50;;;;;;5074896;28;19903;-90
2022/08/09 08:40:49;;;;;;;;;;;36.60;40.50;;;;;;5074525;28;20155;-89
2022/08/09 08:43:15;;;;;;;;;;;36.70;40.30;;;;;;5075366;28;20139;-89
2022/08/09 08:45:44;;;;;;;;;;;36.80;40.30;;;;;;5075666;28;19908;-89
2022/08/09 08:48:10;;;;;;;;;;;36.90;40.10;;;;;;5074545;28;19912;-89
2022/08/09 08:50:37;;;;;;;;;;;37.10;39.90;;;;;;5073465;28;19911;-89
2022/08/09 08:53:02;;;;;;;;;;;37.10;39.90;;;;;;5089476;28;19916;-89
2022/08/09 08:55:29;;;;;;;;;;;37.10;39.90;;;;;;5092336;28;19915;-89
2022/08/09 08:57:54;;;;;;;;;;;37.20;39.90;;;;;;5074644;28;19904;-89
2022/08/09 09:00:20;;;;;;;;;;;37.20;39.90;;;;;;5091652;28;20398;-89
2022/08/09 09:02:47;;;;;;;;;;;37.20;39.80;;;;;;5073461;28;19904;-90
2022/08/09 09:05:13;;;;;;;;;;;37.20;39.80;;;;;;5073084;28;19904;-89
2022/08/09 09:07:41;;;;;;;;;;;37.20;39.80;;;;;;5074707;28;19915;-89
2022/08/09 09:10:08;;;;;;;;;;;37.20;39.90;;;;;;5075598;28;20037;-89
2022/08/09 09:12:34;;;;;;;;;;;37.20;39.90;;;;;;5074243;28;19908;-89
2022/08/09 09:15:01;;;;;;;;;;;37.20;39.80;;;;;;5073863;28;19904;-89
2022/08/09 09:17:27;;;;;;;;;;;37.20;40.10;;;;;;5072848;28;19904;-90
2022/08/09 09:19:53;;;;;;;;;;;37.10;40.00;;;;;;5074850;28;19904;-90
2022/08/09 09:22:19;;;;;;;;;;;37.10;40.00;;;;;;5074080;28;19964;-90
2022/08/09 09:24:49;;;;;;;;;;;37.00;40.20;;;;;;5074258;28;20186;-90
2022/08/09 09:27:20;;;;;;;;;;;37.10;40.00;;;;;;5073986;28;19904;-89
2022/08/09 09:29:47;;;;;;;;;;;37.10;40.10;;;;;;5074293;28;19908;-89
2022/08/09 09:32:17;;;;;;;;;;;36.90;40.20;;;;;;5091986;28;19912;-89
2022/08/09 09:34:59;;;;;;;;;;;37.10;40.00;;;;;;5074173;28;19939;-90
2022/08/09 09:37:29;;;;;;;;;;;37.10;40.00;;;;;;5090932;28;19911;-90
2022/08/09 09:39:54;;;;;;;;;;;37.10;40.00;;;;;;5072580;28;19908;-90
2022/08/09 09:42:24;;;;;;;;;;;37.10;40.20;;;;;;5073488;28;19908;-89
2022/08/09 09:44:54;;;;;;;;;;;37.10;40.10;;;;;;5091713;28;19908;-90
2022/08/09 09:47:20;;;;;;;;;;;37.10;40.00;;;;;;5071918;28;20247;-89
2022/08/09 09:49:56;;;;;;;;;;;36.90;40.20;;;;;;5074124;28;19946;-90
2022/08/09 09:52:22;;;;;;;;;;;36.70;40.50;;;;;;5072908;28;20322;-89
2022/08/09 09:54:48;;;;;;;;;;;36.40;40.50;;;;;;5090772;28;19995;-90
2022/08/09 09:57:16;;;;;;;;;;;36.00;40.80;;;;;;5073837;28;19936;-89
2022/08/09 09:59:42;;;;;;;;;;;35.60;40.90;;;;;;5072525;28;19908;-89
2022/08/09 10:02:08;;;;;;;;;;;35.10;41.30;;;;;;5073571;28;20065;-89
2022/08/09 10:04:34;;;;;;;;;;;34.50;42.10;;;;;;5074313;28;19911;-89
2022/08/09 10:07:00;;;;;;;;;;;33.90;42.10;;;;;;5073776;28;19911;-89
2022/08/09 10:09:25;;;;;;;;;;;33.30;42.50;;;;;;5073539;28;19908;-89
2022/08/09 10:11:56;;;;;;;;;;;33.00;42.80;;;;;;5091389;28;19916;-89
2022/08/09 10:14:23;;;;;;;;;;;32.60;43.00;;;;;;5072179;28;20308;-89
2022/08/09 10:16:48;;;;;;;;;;;32.40;43.30;;;;;;5091462;28;19905;-89
2022/08/09 10:19:14;;;;;;;;;;;32.20;43.50;;;;;;5071823;28;19914;-89
2022/08/09 10:21:48;;;;;;;;;;;32.00;43.60;;;;;;5073215;28;19904;-90
2022/08/09 10:24:19;;;;;;;;;;;31.70;43.80;;;;;;5090260;28;19941;-89
2022/08/09 10:26:45;;;;;;;;;;;31.40;44.20;;;;;;5072508;28;19911;-89
2022/08/09 10:29:12;;;;;;;;;;;31.30;44.10;;;;;;5090002;28;19935;-88
2022/08/09 10:31:41;;;;;;;;;;;31.20;44.50;;;;;;5071772;28;19907;-88
2022/08/09 10:34:10;;;;;;;;;;;31.10;44.50;;;;;;5072094;28;20028;-89
2022/08/09 10:36:36;;;;;;;;;;;31.00;44.60;;;;;;5070955;28;19942;-89
2022/08/09 10:39:02;;;;;;;;;;;31.00;44.70;;;;;;5070905;28;20224;-88
2022/08/09 10:41:27;;;;;;;;;;;30.80;44.80;;;;;;5072024;28;19903;-89
2022/08/09 10:43:53;;;;;;;;;;;30.70;44.90;;;;;;5072240;28;20094;-88
2022/08/09 10:46:28;;;;;;;;;;;30.60;44.70;;;;;;5071304;28;19904;-88
2022/08/09 10:48:57;;;;;;;;;;;30.60;45.10;;;;;;5070811;28;20266;-89
2022/08/09 10:51:25;;;;;;;;;;;30.50;45.10;;;;;;5088593;28;19914;-89
2022/08/09 10:54:01;;;;;;;;;;;30.40;45.00;;;;;;5070658;28;19904;-88
2022/08/09 10:56:36;;;;;;;;;;;30.40;45.30;;;;;;5071934;28;19904;-88
2022/08/09 10:59:20;;;;;;;;;;;30.30;44.70;;;;;;5071693;28;19904;-89
2022/08/09 11:01:46;;;;;;;;;;;30.20;45.10;;;;;;5069832;28;19904;-88
2022/08/09 11:04:17;;;;;;;;;;;30.20;45.40;;;;;;5071286;28;19915;-89
2022/08/09 11:06:43;;;;;;;;;;;30.10;45.50;;;;;;5070790;28;19911;-89
2022/08/09 11:09:10;;;;;;;;;;;30.00;44.40;;;;;;5071892;28;19904;-89
2022/08/09 11:11:54;;;;;;;;;;;30.00;45.10;;;;;;5071946;28;19908;-88
2022/08/09 11:14:34;;;;;;;;;;;30.00;45.40;;;;;;5071967;28;19915;-89
2022/08/09 11:17:19;;;;;;;;;;;29.90;45.50;;;;;;5072394;28;20131;-89
2022/08/09 11:20:09;;;;;;;;;;;29.80;44.70;;;;;;5056894;28;19915;-89
2022/08/09 11:22:41;;;;;;;;;;;29.80;45.50;;;;;;5090019;28;19916;-88
2022/08/09 11:25:08;;;;;;;;;;;29.70;45.80;;;;;;5073033;28;19952;-89
2022/08/09 11:27:37;;;;;;;;;;;29.50;46.10;;;;;;5088970;28;20365;-88
2022/08/09 11:30:04;;;;;;;;;;;29.40;45.60;;;;;;5090072;28;20076;-89
2022/08/09 11:32:38;;;;;;;;;;;29.40;46.10;;;;;;5070557;28;19964;-90
2022/08/09 11:35:07;;;;;;;;;;;29.40;46.20;;;;;;5069915;28;19912;-89
2022/08/09 11:37:33;;;;;;;;;;;29.30;46.20;;;;;;5070941;28;19904;-89
2022/08/09 11:40:04;;;;;;;;;;;29.20;46.40;;;;;;5070667;28;19904;-89
2022/08/09 11:42:40;;;;;;;;;;;29.10;46.40;;;;;;5072041;28;19904;-90
2022/08/09 11:45:23;;;;;;;;;;;29.10;46.30;;;;;;5069197;28;20390;-88
2022/08/09 11:47:50;;;;;;;;;;;29.00;46.30;;;;;;5071241;28;19994;-89
2022/08/09 11:50:16;;;;;;;;;;;29.00;45.40;;;;;;5075005;28;19985;-89
2022/08/09 11:52:57;;;;;;;;;;;29.00;44.40;;;;;;5074250;28;20281;-89
2022/08/09 11:55:33;;;;;;;;;;;29.10;45.80;;;;;;5075840;28;20344;-89
2022/08/09 11:58:04;;;;;;;;;;;29.10;46.20;;;;;;5075004;28;19939;-89
2022/08/09 12:00:31;;;;;;;;;;;29.10;46.30;;;;;;5091721;28;19912;-89
2022/08/09 12:02:58;;;;;;;;;;;29.10;46.40;;;;;;5073981;28;19904;-88
2022/08/09 12:05:34;;;;;;;;;;;29.00;46.30;;;;;;5074492;28;19904;-90
2022/08/09 12:08:05;;;;;;;;;;;29.00;46.50;;;;;;5074949;28;19915;-89
2022/08/09 12:10:30;;;;;;;;;;;28.80;46.50;;;;;;5074806;28;19919;-89
2022/08/09 12:12:56;;;;;;;;;;;28.80;46.20;;;;;;5093417;28;19908;-90
2022/08/09 12:15:23;;;;;;;;;;;28.80;46.50;;;;;;5075260;28;19912;-89
2022/08/09 12:17:49;;;;;;;;;;;28.80;46.50;;;;;;5074103;28;19915;-89
2022/08/09 12:20:16;;;;;;;;;;;28.80;46.40;;;;;;5074211;28;19954;-90
2022/08/09 12:22:43;;;;;;;;;;;28.80;45.60;;;;;;5073109;28;19962;-90
2022/08/09 12:25:18;;;;;;;;;;;28.70;46.00;;;;;;5072851;28;19904;-90
2022/08/09 12:27:44;;;;;;;;;;;28.70;46.40;;;;;;5073159;28;19916;-89
2022/08/09 12:30:10;;;;;;;;;;;28.70;46.40;;;;;;5072871;28;19913;-89
2022/08/09 12:32:36;;;;;;;;;;;28.70;46.50;;;;;;5072983;28;19939;-90
2022/08/09 12:35:03;;;;;;;;;;;28.70;46.60;;;;;;5071829;28;19966;-90
2022/08/09 12:37:33;;;;;;;;;;;28.70;46.20;;;;;;5070973;28;19908;-91
2022/08/09 12:40:00;;;;;;;;;;;28.70;46.10;;;;;;5072657;28;20018;-90
2022/08/09 12:42:27;;;;;;;;;;;28.60;46.00;;;;;;5071657;28;19934;-89
2022/08/09 12:44:52;;;;;;;;;;;28.60;46.10;;;;;;5072903;28;20269;-89
2022/08/09 12:47:18;;;;;;;;;;;28.60;46.50;;;;;;5073051;28;19914;-89
2022/08/09 12:50:15;;;;;;;;;;;28.60;46.60;;;;;;5072985;28;19904;-89
2022/08/09 12:52:40;;;;;;;;;;;28.50;46.50;;;;;;5089762;28;20004;-89
2022/08/09 12:55:08;;;;;;;;;;;28.50;46.70;;;;;;5072396;28;19904;-89
2022/08/09 12:57:41;;;;;;;;;;;28.50;46.70;;;;;;5091960;28;20390;-88
2022/08/09 13:00:22;;;;;;;;;;;28.40;46.60;;;;;;5072067;28;20190;-89
2022/08/09 13:02:58;;;;;;;;;;;28.40;46.70;;;;;;5073674;28;19908;-89
2022/08/09 13:05:26;;;;;;;;;;;28.50;46.60;;;;;;5090483;28;19949;-91
2022/08/09 13:08:31;;;;;;;;;;;28.50;46.70;;;;;;5073772;28;19998;-89
2022/08/09 13:10:58;;;;;;;;;;;28.50;46.40;;;;;;5009249;28;19936;-90
2022/08/09 13:13:29;;;;;;;;;;;28.60;46.80;;;;;;4992263;28;19912;-89
2022/08/09 13:16:04;;;;;;;;;;;28.50;46.70;;;;;;5031307;28;19904;-90
2022/08/09 13:18:39;;;;;;;;;;;28.50;46.50;;;;;;5053062;28;19977;-90
2022/08/09 13:21:16;;;;;;;;;;;28.50;44.90;;;;;;5053553;28;19904;-90
2022/08/09 13:23:42;;;;;;;;;;;28.40;45.00;;;;;;5069860;28;19911;-89
2022/08/09 13:26:08;;;;;;;;;;;28.50;46.20;;;;;;5052594;28;19905;-89
2022/08/09 13:28:33;;;;;;;;;;;28.40;45.90;;;;;;5051624;28;19915;-90
2022/08/09 13:31:04;;;;;;;;;;;28.40;46.40;;;;;;5053270;28;20304;-90
2022/08/09 13:33:30;;;;;;;;;;;28.50;46.60;;;;;;5052426;28;19908;-90
2022/08/09 13:35:55;;;;;;;;;;;28.50;46.60;;;;;;5070347;28;19920;-89
2022/08/09 13:38:21;;;;;;;;;;;28.50;46.70;;;;;;5070048;28;19904;-90
2022/08/09 13:41:07;;;;;;;;;;;28.40;46.70;;;;;;5051476;28;19935;-89
2022/08/09 13:43:35;;;;;;;;;;;28.40;46.70;;;;;;5069143;28;20033;-90
2022/08/09 13:46:01;;;;;;;;;;;28.40;46.70;;;;;;5052968;28;20069;-90
2022/08/09 13:48:27;;;;;;;;;;;28.40;46.80;;;;;;5051599;28;20175;-89
2022/08/09 13:50:52;;;;;;;;;;;28.50;46.80;;;;;;5072159;28;19943;-89
2022/08/09 13:53:18;;;;;;;;;;;28.40;46.60;;;;;;5069280;28;19904;-89
2022/08/09 13:55:44;;;;;;;;;;;28.40;46.00;;;;;;5051599;28;19966;-89
2022/08/09 13:58:10;;;;;;;;;;;28.40;46.80;;;;;;5051867;28;19934;-90
2022/08/09 14:00:37;;;;;;;;;;;28.30;46.80;;;;;;5053012;28;19905;-88
2022/08/09 14:03:03;;;;;;;;;;;28.30;46.80;;;;;;5053621;28;19904;-91
2022/08/09 14:05:29;;;;;;;;;;;28.30;46.80;;;;;;5052236;28;20273;-90
2022/08/09 14:07:55;;;;;;;;;;;28.40;46.90;;;;;;5051380;28;19904;-90
2022/08/09 14:10:22;;;;;;;;;;;28.30;46.30;;;;;;5068548;28;19914;-89
2022/08/09 14:12:48;;;;;;;;;;;28.30;46.70;;;;;;5052323;28;19908;-90
2022/08/09 14:15:13;;;;;;;;;;;28.30;46.70;;;;;;5051915;28;19915;-89
2022/08/09 14:17:39;;;;;;;;;;;28.30;46.70;;;;;;5051110;28;20111;-89